Time;durP1;ratioP1;P1;durP2;ratioP2;P2;SDS_P1;SDS_P2;PMS_P1;PMS_P2;Temp;Humidity;BMP_temperature;BMP_pressure;BME280_temperature;BME280_humidity;BME280_pressure;Samples;Min_cycle;Max_cycle;Signal;HPM_P1;HPM_P2
2021/12/27 00:00:24;;;;;;;15.47;11.90;;;7.80;79.40;8.00;95403.00;;;;5052024;28;20216;-87
2021/12/27 00:02:57;;;;;;;16.33;10.97;;;7.90;79.50;8.00;95413.00;;;;5047769;28;20211;-87
2021/12/27 00:05:24;;;;;;;17.30;11.10;;;7.90;79.70;8.00;95408.00;;;;5050661;28;20287;-87
2021/12/27 00:07:54;;;;;;;14.60;10.73;;;7.90;79.70;8.00;95409.00;;;;5049614;28;20193;-88
2021/12/27 00:10:27;;;;;;;13.80;10.50;;;7.90;79.60;8.00;95404.00;;;;5046975;28;20220;-87
2021/12/27 00:12:54;;;;;;;14.97;10.70;;;7.90;79.60;8.00;95394.00;;;;5052016;28;20275;-87
2021/12/27 00:15:25;;;;;;;15.83;10.77;;;7.90;79.70;8.00;95398.00;;;;5050141;28;20195;-87
2021/12/27 00:17:53;;;;;;;15.80;12.20;;;8.50;80.00;8.00;95397.00;;;;5053290;28;20275;-87
2021/12/27 00:20:22;;;;;;;16.20;11.33;;;7.90;79.70;8.00;95403.00;;;;5052153;28;20223;-87
2021/12/27 00:22:50;;;;;;;17.57;12.00;;;7.90;79.70;8.00;95402.00;;;;5052535;28;20204;-87
2021/12/27 00:25:19;;;;;;;17.87;11.63;;;7.90;79.70;8.00;95400.00;;;;5047046;28;20204;-87
2021/12/27 00:27:49;;;;;;;15.00;11.37;;;7.90;79.50;8.00;95402.00;;;;5041913;28;20422;-87
2021/12/27 00:30:18;;;;;;;18.90;12.47;;;7.90;79.40;8.00;95408.00;;;;5052964;28;20304;-87
2021/12/27 00:32:46;;;;;;;15.90;11.57;;;7.90;79.40;8.00;95405.00;;;;5052619;28;20231;-87
2021/12/27 00:35:15;;;;;;;14.20;10.93;;;7.90;79.20;8.00;95406.00;;;;5052340;28;20296;-88
2021/12/27 00:37:43;;;;;;;14.93;11.63;;;7.90;79.10;8.00;95404.00;;;;5052768;28;20192;-87
2021/12/27 00:40:15;;;;;;;16.33;11.53;;;7.90;79.40;8.00;95402.00;;;;5052161;28;20220;-87
2021/12/27 00:42:49;;;;;;;15.57;10.97;;;7.90;79.40;8.00;95403.00;;;;5051618;28;20577;-88
2021/12/27 00:45:20;;;;;;;13.90;10.47;;;7.90;79.30;8.00;95404.00;;;;5050369;28;20192;-88
2021/12/27 00:47:47;;;;;;;16.47;11.47;;;7.90;79.50;8.00;95411.00;;;;5052454;28;20196;-87
2021/12/27 00:50:15;;;;;;;15.27;10.97;;;7.90;79.40;8.00;95405.00;;;;5051909;28;20280;-87
2021/12/27 00:52:43;;;;;;;16.00;11.50;;;7.90;79.40;8.00;95408.00;;;;5052620;28;20266;-87
2021/12/27 00:55:15;;;;;;;14.77;10.87;;;7.90;79.50;8.00;95397.00;;;;5051708;28;20188;-88
2021/12/27 00:57:46;;;;;;;15.40;10.83;;;7.90;79.50;8.00;95399.00;;;;5044118;28;20201;-88
2021/12/27 01:00:20;;;;;;;14.50;11.00;;;7.90;79.50;8.10;95402.00;;;;5034769;28;20241;-87
2021/12/27 01:02:48;;;;;;;15.60;11.37;;;7.90;79.40;8.10;95404.00;;;;5051425;28;20275;-88
2021/12/27 01:05:19;;;;;;;14.97;10.27;;;8.00;79.50;8.00;95397.00;;;;5051076;28;20220;-87
2021/12/27 01:07:47;;;;;;;15.80;11.03;;;8.00;79.40;8.00;95402.00;;;;5052329;28;20200;-87
2021/12/27 01:13:06;;;;;;;14.50;10.97;;;7.90;79.50;8.00;95404.00;;;;5038874;28;20197;-88
2021/12/27 01:15:48;;;;;;;14.07;10.37;;;7.90;79.30;8.00;95400.00;;;;5049602;28;20623;-87
2021/12/27 01:18:17;;;;;;;15.50;11.00;;;7.90;79.20;8.00;95403.00;;;;5050567;28;20256;-87
2021/12/27 01:20:44;;;;;;;14.30;10.80;;;7.90;79.40;8.00;95405.00;;;;5050175;28;20224;-87
2021/12/27 01:23:12;;;;;;;15.30;10.73;;;7.90;79.40;8.00;95410.00;;;;5044489;28;20283;-87
2021/12/27 01:25:40;;;;;;;13.93;11.00;;;8.00;79.40;8.00;95410.00;;;;5050371;28;20223;-88
2021/12/27 01:28:11;;;;;;;15.77;10.90;;;7.90;79.30;8.00;95406.00;;;;5051140;28;20228;-87
2021/12/27 01:30:47;;;;;;;13.30;10.40;;;8.00;79.50;8.00;95400.00;;;;5050833;28;20224;-87
2021/12/27 01:33:15;;;;;;;15.53;11.07;;;7.90;79.50;8.00;95395.00;;;;5051050;28;20203;-87
2021/12/27 01:35:43;;;;;;;14.63;10.53;;;7.90;79.70;8.00;95389.00;;;;5042481;28;20209;-87
2021/12/27 01:38:13;;;;;;;13.13;10.33;;;7.90;79.70;8.00;95398.00;;;;5040783;28;20267;-87
2021/12/27 01:40:43;;;;;;;16.67;10.80;;;7.90;79.60;8.00;95390.00;;;;5049917;28;20269;-87
2021/12/27 01:43:13;;;;;;;13.83;10.20;;;7.90;79.70;8.00;95383.00;;;;5050180;28;20714;-87
2021/12/27 01:48:11;;;;;;;14.43;10.57;;;7.90;79.70;8.00;95379.00;;;;5022378;28;20209;-86
2021/12/27 01:50:42;;;;;;;13.97;10.40;;;7.90;79.70;8.00;95379.00;;;;5032775;28;20255;-86
2021/12/27 01:53:11;;;;;;;14.10;10.83;;;7.90;79.80;8.00;95374.00;;;;5032656;28;20731;-86
2021/12/27 01:55:39;;;;;;;14.30;10.77;;;7.90;79.70;8.00;95382.00;;;;5021615;28;20204;-86
2021/12/27 01:58:07;;;;;;;15.47;11.37;;;7.90;79.90;7.90;95377.00;;;;5018670;28;20213;-86
2021/12/27 02:00:37;;;;;;;15.23;10.53;;;7.90;79.80;7.90;95374.00;;;;5023361;28;20221;-88
2021/12/27 02:03:05;;;;;;;16.07;11.00;;;7.90;80.00;7.90;95377.00;;;;5028781;28;20212;-88
2021/12/27 02:05:36;;;;;;;15.80;11.17;;;7.90;79.70;7.90;95371.00;;;;5029539;28;20594;-88
2021/12/27 02:08:04;;;;;;;16.70;10.70;;;7.80;79.70;7.90;95362.00;;;;5005525;28;20198;-88
2021/12/27 02:10:32;;;;;;;15.23;10.93;;;7.80;79.70;7.90;95366.00;;;;5001699;28;20202;-88
2021/12/27 02:13:01;;;;;;;14.77;10.13;;;7.80;79.80;7.90;95366.00;;;;4998584;28;20190;-86
2021/12/27 02:15:28;;;;;;;16.03;11.33;;;7.80;79.80;7.90;95371.00;;;;4998769;28;20200;-88
2021/12/27 02:17:56;;;;;;;17.50;11.90;;;7.80;80.00;7.90;95371.00;;;;5009345;28;20555;-88
2021/12/27 02:20:28;;;;;;;16.10;11.33;;;7.80;80.00;7.90;95370.00;;;;5013945;28;20221;-88
2021/12/27 02:23:00;;;;;;;15.53;11.30;;;8.10;80.20;7.90;95372.00;;;;5015714;28;20198;-88
2021/12/27 02:25:29;;;;;;;13.60;10.53;;;7.80;79.90;7.90;95369.00;;;;5003600;28;20213;-88
2021/12/27 02:27:58;;;;;;;14.87;10.80;;;7.80;79.90;7.90;95370.00;;;;5016151;28;20194;-88
2021/12/27 02:30:25;;;;;;;14.97;10.63;;;7.80;80.00;7.90;95376.00;;;;5015452;28;20202;-88
2021/12/27 02:32:56;;;;;;;14.33;11.07;;;7.80;80.00;7.90;95375.00;;;;5001229;28;20583;-87
2021/12/27 02:35:28;;;;;;;16.80;12.00;;;7.80;79.90;7.90;95369.00;;;;5006824;28;20177;-88
2021/12/27 02:37:58;;;;;;;16.27;11.70;;;7.80;79.90;7.90;95376.00;;;;5031565;28;20675;-88
2021/12/27 02:40:30;;;;;;;15.00;11.20;;;7.80;79.90;7.90;95368.00;;;;5021788;28;20227;-87
2021/12/27 02:43:02;;;;;;;17.10;11.87;;;7.80;79.90;7.90;95378.00;;;;5029237;28;20265;-88
2021/12/27 02:45:33;;;;;;;18.03;11.70;;;7.80;79.70;7.90;95372.00;;;;4995988;28;20210;-88
2021/12/27 02:48:01;;;;;;;18.80;11.50;;;7.70;79.80;7.90;95372.00;;;;5010149;28;20217;-88
2021/12/27 02:50:30;;;;;;;17.60;11.60;;;7.70;79.90;7.90;95366.00;;;;5020415;28;20565;-88
2021/12/27 02:52:57;;;;;;;15.23;11.50;;;7.80;80.00;7.80;95362.00;;;;5004217;28;20237;-88
2021/12/27 02:55:24;;;;;;;17.30;12.47;;;7.70;80.10;7.80;95365.00;;;;5004636;28;20203;-89
2021/12/27 02:57:53;;;;;;;15.70;11.40;;;7.70;80.00;7.80;95358.00;;;;5021393;28;20194;-87
2021/12/27 03:00:24;;;;;;;15.33;11.37;;;7.70;79.90;7.80;95353.00;;;;5017073;28;20213;-88
2021/12/27 03:02:52;;;;;;;18.10;12.20;;;7.70;80.00;7.80;95355.00;;;;5006148;28;20201;-88
2021/12/27 03:05:22;;;;;;;17.77;12.23;;;7.70;80.20;7.80;95358.00;;;;5034753;28;20197;-89
2021/12/27 03:07:53;;;;;;;16.00;12.00;;;7.70;80.40;7.80;95357.00;;;;5032859;28;20201;-89
2021/12/27 03:10:25;;;;;;;15.53;11.60;;;7.60;80.20;7.70;95362.00;;;;5014892;28;20210;-89
2021/12/27 03:12:54;;;;;;;15.03;10.90;;;7.60;80.10;7.70;95351.00;;;;5015779;28;20296;-88
2021/12/27 03:15:24;;;;;;;16.70;11.20;;;7.60;80.20;7.70;95353.00;;;;5015666;28;20198;-88
2021/12/27 03:17:54;;;;;;;16.40;11.80;;;7.60;80.30;7.70;95351.00;;;;5001731;28;20202;-88
2021/12/27 03:20:25;;;;;;;17.67;12.03;;;7.60;80.30;7.70;95357.00;;;;4995401;28;20226;-88
2021/12/27 03:22:54;;;;;;;18.30;12.43;;;7.60;80.40;7.70;95343.00;;;;5008511;28;20197;-88
2021/12/27 03:25:25;;;;;;;15.77;11.97;;;7.60;80.50;7.70;95345.00;;;;5014804;28;20194;-88
2021/12/27 03:27:53;;;;;;;17.70;12.73;;;7.80;80.80;7.70;95352.00;;;;5015702;28;20267;-87
2021/12/27 03:30:25;;;;;;;17.80;12.60;;;7.60;80.60;7.70;95342.00;;;;5015279;28;20627;-87
2021/12/27 03:32:53;;;;;;;15.73;12.00;;;7.60;80.50;7.70;95335.00;;;;5000553;28;20210;-86
2021/12/27 03:35:27;;;;;;;15.70;11.57;;;7.60;80.50;7.70;95328.00;;;;4995807;28;20202;-87
2021/12/27 03:37:59;;;;;;;15.50;11.30;;;7.60;80.60;7.80;95334.00;;;;5019827;28;20659;-86
2021/12/27 03:40:30;;;;;;;17.70;12.97;;;7.70;80.50;7.80;95331.00;;;;5020267;28;20221;-87
2021/12/27 03:42:58;;;;;;;16.73;11.83;;;7.60;80.60;7.80;95327.00;;;;5014939;28;20190;-87
2021/12/27 03:45:28;;;;;;;14.40;10.97;;;7.60;80.70;7.80;95329.00;;;;5000740;28;20664;-86
2021/12/27 03:47:57;;;;;;;16.30;12.07;;;7.60;80.70;7.80;95328.00;;;;4995689;28;20241;-86
2021/12/27 03:50:25;;;;;;;18.47;12.73;;;7.80;80.80;7.80;95333.00;;;;5003558;28;20205;-86
2021/12/27 03:52:52;;;;;;;17.17;12.13;;;7.60;80.60;7.80;95335.00;;;;5036250;28;20243;-86
2021/12/27 03:55:23;;;;;;;18.47;13.03;;;7.80;80.60;7.80;95341.00;;;;5035068;28;20267;-86
2021/12/27 03:57:53;;;;;;;17.47;12.53;;;7.70;80.50;7.80;95330.00;;;;5034423;28;20551;-86
2021/12/27 04:00:33;;;;;;;15.30;12.03;;;7.70;80.50;7.80;95341.00;;;;5035040;28;20271;-87
2021/12/27 04:03:02;;;;;;;17.43;12.17;;;7.60;80.40;7.80;95335.00;;;;5034461;28;20196;-86
2021/12/27 04:05:30;;;;;;;23.27;13.40;;;7.70;80.60;7.80;95342.00;;;;5019881;28;20216;-86
2021/12/27 04:08:03;;;;;;;17.73;12.93;;;7.60;80.60;7.80;95336.00;;;;5013017;28;20295;-86
2021/12/27 04:10:32;;;;;;;17.20;12.57;;;7.70;80.70;7.80;95336.00;;;;4995266;28;20261;-86
2021/12/27 04:12:59;;;;;;;18.20;12.70;;;7.70;80.70;7.70;95331.00;;;;5027949;28;20193;-87
2021/12/27 04:15:26;;;;;;;20.37;13.30;;;7.60;80.70;7.70;95331.00;;;;5034236;28;20543;-87
2021/12/27 04:17:53;;;;;;;19.90;13.10;;;7.60;80.80;7.80;95328.00;;;;5034275;28;20197;-87
2021/12/27 04:20:22;;;;;;;18.40;13.90;;;7.60;80.90;7.80;95317.00;;;;5015158;28;20232;-86
2021/12/27 04:22:50;;;;;;;16.03;12.23;;;7.60;81.00;7.80;95321.00;;;;5014451;28;20670;-87
2021/12/27 04:25:20;;;;;;;18.67;13.37;;;7.70;81.10;7.80;95318.00;;;;5013649;28;20190;-87
2021/12/27 04:27:51;;;;;;;16.27;12.53;;;7.60;81.00;7.80;95318.00;;;;5025658;28;20680;-86
2021/12/27 04:30:20;;;;;;;18.17;13.43;;;7.60;81.00;7.80;95324.00;;;;5016098;28;20194;-87
2021/12/27 04:32:49;;;;;;;18.37;12.97;;;7.60;81.10;7.70;95331.00;;;;5019939;28;20216;-87
2021/12/27 04:35:17;;;;;;;19.57;13.37;;;7.60;81.00;7.80;95316.00;;;;5014211;28;20202;-87
2021/12/27 04:37:45;;;;;;;17.37;13.13;;;7.60;81.00;7.70;95323.00;;;;5023456;28;20221;-86
2021/12/27 04:40:14;;;;;;;21.13;13.07;;;7.60;80.70;7.70;95329.00;;;;5015930;28;20198;-87
2021/12/27 04:42:47;;;;;;;19.13;13.00;;;7.60;80.80;7.70;95319.00;;;;5030895;28;20189;-86
2021/12/27 04:45:16;;;;;;;28.10;13.37;;;7.60;80.70;7.70;95322.00;;;;5033353;28;20188;-87
2021/12/27 04:47:44;;;;;;;21.37;13.87;;;7.60;80.60;7.70;95324.00;;;;5021116;28;20253;-86
2021/12/27 04:50:11;;;;;;;17.20;12.73;;;7.70;80.70;7.70;95326.00;;;;5013983;28;20685;-86
2021/12/27 04:52:39;;;;;;;20.33;13.37;;;7.50;80.60;7.70;95330.00;;;;5014064;28;20574;-87
2021/12/27 04:55:08;;;;;;;23.87;12.73;;;7.60;81.40;7.70;95328.00;;;;4999385;28;20207;-86
2021/12/27 04:57:36;;;;;;;17.73;12.87;;;7.60;80.60;7.70;95327.00;;;;4997269;28;20214;-86
2021/12/27 05:00:05;;;;;;;20.70;13.83;;;7.60;80.60;7.70;95322.00;;;;5008012;28;20281;-87
2021/12/27 05:02:34;;;;;;;20.93;14.10;;;7.60;80.80;7.70;95321.00;;;;5014760;28;20202;-87
2021/12/27 05:05:01;;;;;;;20.17;13.63;;;7.60;80.70;7.70;95328.00;;;;5015455;28;20262;-86
2021/12/27 05:07:28;;;;;;;20.43;13.77;;;7.60;80.80;7.70;95334.00;;;;5028048;28;20224;-87
2021/12/27 05:09:55;;;;;;;20.30;13.60;;;7.60;80.80;7.70;95328.00;;;;5033492;28;20745;-86
2021/12/27 05:12:22;;;;;;;20.57;13.70;;;7.60;80.90;7.70;95317.00;;;;5033106;28;20212;-88
2021/12/27 05:14:50;;;;;;;19.53;13.63;;;7.60;80.80;7.70;95335.00;;;;5020259;28;20197;-87
2021/12/27 05:17:17;;;;;;;21.37;14.07;;;7.60;80.80;7.70;95332.00;;;;5027095;28;20241;-86
2021/12/27 05:19:46;;;;;;;18.57;13.17;;;7.60;81.50;7.70;95329.00;;;;4999710;28;20194;-86
2021/12/27 05:22:14;;;;;;;22.67;14.13;;;7.60;80.80;7.80;95329.00;;;;4993885;28;20697;-87
2021/12/27 05:24:41;;;;;;;19.43;13.20;;;7.60;80.90;7.80;95331.00;;;;5011175;28;20595;-86
2021/12/27 05:27:09;;;;;;;20.00;13.77;;;7.60;80.90;7.80;95327.00;;;;5033121;28;20751;-86
2021/12/27 05:29:36;;;;;;;21.87;14.40;;;7.60;81.00;7.80;95341.00;;;;5025684;28;20245;-86
2021/12/27 05:32:04;;;;;;;22.50;13.23;;;7.60;80.90;7.80;95336.00;;;;5006902;28;20730;-87
2021/12/27 05:34:32;;;;;;;20.70;13.30;;;7.70;80.90;7.80;95327.00;;;;4993580;28;20235;-87
2021/12/27 05:37:00;;;;;;;23.60;14.17;;;7.70;81.00;7.80;95317.00;;;;4999647;28;20233;-86
2021/12/27 05:39:28;;;;;;;18.10;13.07;;;7.70;80.90;7.80;95329.00;;;;4993617;28;20199;-86
2021/12/27 05:41:55;;;;;;;19.03;13.17;;;7.70;80.80;7.80;95322.00;;;;4998988;28;20218;-86
2021/12/27 05:44:22;;;;;;;19.70;13.10;;;7.70;80.80;7.80;95322.00;;;;5023167;28;20664;-86
2021/12/27 05:46:49;;;;;;;19.40;12.80;;;7.70;80.50;7.80;95321.00;;;;5008256;28;20234;-86
2021/12/27 05:49:16;;;;;;;25.37;13.50;;;7.70;80.50;7.80;95329.00;;;;5011166;28;20203;-86
2021/12/27 05:51:44;;;;;;;22.40;14.13;;;7.60;80.20;7.70;95327.00;;;;5022879;28;20201;-87
2021/12/27 05:54:14;;;;;;;19.23;13.50;;;7.60;80.20;7.70;95327.00;;;;5006555;28;20194;-86
2021/12/27 05:56:43;;;;;;;22.90;14.90;;;7.60;80.10;7.70;95315.00;;;;5030729;28;20289;-86
2021/12/27 05:59:12;;;;;;;23.47;13.93;;;7.60;80.20;7.70;95313.00;;;;5030214;28;20248;-86
2021/12/27 06:01:39;;;;;;;18.80;13.17;;;7.60;80.20;7.70;95307.00;;;;5032828;28;20689;-86
2021/12/27 06:04:07;;;;;;;19.07;13.00;;;7.60;80.20;7.70;95298.00;;;;5036986;28;20196;-86
2021/12/27 06:06:34;;;;;;;20.20;13.47;;;7.60;80.20;7.70;95305.00;;;;5021700;28;20222;-86
2021/12/27 06:09:01;;;;;;;21.73;14.20;;;7.60;80.20;7.60;95302.00;;;;5016835;28;20217;-86
2021/12/27 06:11:30;;;;;;;29.03;14.23;;;7.60;80.00;7.60;95308.00;;;;5016411;28;20662;-86
2021/12/27 06:13:57;;;;;;;20.53;14.23;;;7.50;79.80;7.60;95310.00;;;;5017018;28;20212;-86
2021/12/27 06:16:25;;;;;;;20.03;13.87;;;7.50;79.70;7.50;95307.00;;;;5018509;28;20224;-86
2021/12/27 06:18:53;;;;;;;16.87;12.67;;;7.50;79.70;7.50;95315.00;;;;5016715;28;20209;-86
2021/12/27 06:21:20;;;;;;;26.07;13.97;;;7.50;79.90;7.50;95321.00;;;;5029387;28;20232;-86
2021/12/27 06:23:47;;;;;;;19.87;13.80;;;7.50;80.10;7.50;95320.00;;;;5036298;28;20695;-86
2021/12/27 06:26:14;;;;;;;21.97;13.77;;;7.50;80.30;7.50;95316.00;;;;5035611;28;20220;-86
2021/12/27 06:28:44;;;;;;;21.63;14.60;;;7.40;80.30;7.50;95317.00;;;;5035610;28;20194;-87
2021/12/27 06:31:11;;;;;;;19.97;13.57;;;7.40;80.40;7.60;95315.00;;;;5007743;28;20250;-86
2021/12/27 06:33:45;;;;;;;20.13;13.20;;;7.50;80.50;7.60;95323.00;;;;4997337;28;20281;-86
2021/12/27 06:36:12;;;;;;;22.80;13.33;;;7.60;80.40;7.50;95314.00;;;;5017914;28;20721;-86
2021/12/27 06:38:39;;;;;;;18.90;13.23;;;7.50;80.30;7.50;95314.00;;;;5029336;28;20201;-86
2021/12/27 06:41:06;;;;;;;21.10;13.50;;;7.50;80.30;7.50;95302.00;;;;4996726;28;20226;-86
2021/12/27 06:43:33;;;;;;;17.90;13.27;;;7.50;80.30;7.50;95309.00;;;;4997914;28;20571;-87
2021/12/27 06:46:04;;;;;;;19.83;13.27;;;7.40;80.00;7.50;95309.00;;;;5020782;28;20209;-86
2021/12/27 06:48:31;;;;;;;28.70;13.70;;;7.40;80.10;7.50;95302.00;;;;5033973;28;20198;-86
2021/12/27 06:50:58;;;;;;;23.27;13.73;;;7.40;80.10;7.50;95293.00;;;;5016584;28;20263;-86
2021/12/27 06:53:28;;;;;;;24.10;12.70;;;7.40;80.00;7.40;95293.00;;;;5017141;28;20194;-86
2021/12/27 06:55:55;;;;;;;18.37;12.60;;;7.40;80.00;7.40;95297.00;;;;5010007;28;20230;-86
2021/12/27 06:58:22;;;;;;;17.53;13.10;;;7.40;79.80;7.30;95289.00;;;;4996339;28;20205;-87
2021/12/27 07:00:50;;;;;;;22.13;13.67;;;7.40;79.60;7.30;95308.00;;;;4996481;28;20649;-86
2021/12/27 07:03:19;;;;;;;20.57;12.87;;;7.30;79.60;7.30;95308.00;;;;5013367;28;20786;-87
2021/12/27 07:05:46;;;;;;;20.20;14.63;;;7.20;79.50;7.20;95296.00;;;;4996012;28;20253;-86
2021/12/27 07:08:13;;;;;;;23.30;13.93;;;7.20;79.60;7.20;95300.00;;;;4998975;28;20656;-86
2021/12/27 07:10:40;;;;;;;18.83;13.27;;;7.20;80.30;7.20;95302.00;;;;5035799;28;20561;-87
2021/12/27 07:13:09;;;;;;;23.87;12.70;;;7.20;79.70;7.20;95307.00;;;;5035717;28;20209;-86
2021/12/27 07:15:41;;;;;;;21.30;13.87;;;7.30;79.80;7.20;95306.00;;;;5015401;28;20695;-87
2021/12/27 07:18:11;;;;;;;20.50;13.40;;;7.20;80.00;7.20;95304.00;;;;5031368;28;20280;-87
2021/12/27 07:20:40;;;;;;;19.27;12.63;;;7.20;80.10;7.10;95303.00;;;;5018011;28;20198;-87
2021/12/27 07:24:05;;;;;;;17.37;12.77;;;7.10;80.00;7.10;95307.00;;;;5015413;28;20773;-86
2021/12/27 07:26:32;;;;;;;17.77;12.77;;;7.10;80.00;7.10;95306.00;;;;5018962;28;20287;-86
2021/12/27 07:28:59;;;;;;;17.73;12.47;;;7.20;80.30;7.10;95299.00;;;;5017590;28;20194;-86
2021/12/27 07:31:27;;;;;;;22.57;13.80;;;7.10;80.40;7.20;95308.00;;;;5017842;28;20208;-87
2021/12/27 07:33:54;;;;;;;29.90;14.03;;;7.10;80.50;7.20;95303.00;;;;5016618;28;20562;-86
2021/12/27 07:36:23;;;;;;;20.80;12.93;;;7.10;80.60;7.20;95298.00;;;;5016176;28;20230;-86
2021/12/27 07:38:50;;;;;;;19.60;12.37;;;7.20;80.70;7.20;95298.00;;;;5012941;28;20207;-86
2021/12/27 07:41:17;;;;;;;18.03;13.40;;;7.20;80.80;7.20;95293.00;;;;4996034;28;20206;-86
2021/12/27 07:43:44;;;;;;;19.43;13.13;;;7.20;80.80;7.20;95290.00;;;;4996715;28;20209;-86
2021/12/27 07:46:11;;;;;;;21.33;13.50;;;7.20;81.00;7.30;95289.00;;;;5015692;28;20230;-87
2021/12/27 07:48:38;;;;;;;20.53;13.80;;;7.20;81.10;7.30;95293.00;;;;5031874;28;20843;-85
2021/12/27 07:51:05;;;;;;;24.50;13.90;;;7.20;81.00;7.30;95293.00;;;;5015959;28;20229;-86
2021/12/27 07:53:34;;;;;;;27.27;14.20;;;7.20;81.00;7.30;95278.00;;;;5015534;28;20281;-86
2021/12/27 07:56:01;;;;;;;19.90;13.40;;;7.20;81.00;7.40;95285.00;;;;5015098;28;20240;-86
2021/12/27 07:58:28;;;;;;;23.77;13.67;;;7.30;81.00;7.40;95293.00;;;;5014561;28;20205;-86
2021/12/27 08:00:55;;;;;;;18.77;12.93;;;7.30;81.00;7.40;95294.00;;;;5007417;28;20649;-87
2021/12/27 08:03:22;;;;;;;28.30;13.83;;;7.30;80.90;7.40;95296.00;;;;5003012;28;20222;-88
2021/12/27 08:05:49;;;;;;;19.03;13.37;;;7.30;80.80;7.40;95300.00;;;;5021583;28;20217;-83
2021/12/27 08:08:17;;;;;;;22.33;13.33;;;7.30;80.80;7.50;95286.00;;;;5005556;28;20676;-82
2021/12/27 08:10:49;;;;;;;22.97;13.97;;;7.40;81.00;7.50;95280.00;;;;5013710;28;20200;-86
2021/12/27 08:13:16;;;;;;;20.87;12.97;;;7.40;80.80;7.60;95280.00;;;;5014255;28;20193;-86
2021/12/27 08:15:43;;;;;;;19.47;13.60;;;7.40;81.00;7.60;95282.00;;;;4996327;28;20277;-86
2021/12/27 08:18:10;;;;;;;24.20;15.40;;;7.40;80.90;7.70;95280.00;;;;4991092;28;20206;-87
2021/12/27 08:20:37;;;;;;;25.33;15.23;;;7.40;80.90;7.70;95281.00;;;;5011681;28;20321;-86
2021/12/27 08:23:04;;;;;;;22.53;13.63;;;7.40;80.90;7.70;95276.00;;;;4998961;28;20240;-86
2021/12/27 08:25:32;;;;;;;24.23;13.47;;;7.50;80.90;7.70;95281.00;;;;4989487;28;20241;-85
2021/12/27 08:28:01;;;;;;;24.87;15.10;;;7.50;80.80;7.70;95281.00;;;;4995683;28;20194;-86
2021/12/27 08:30:28;;;;;;;20.37;13.57;;;7.50;80.80;7.80;95285.00;;;;4990733;28;20214;-86
2021/12/27 08:32:58;;;;;;;22.17;14.13;;;7.40;80.60;7.80;95263.00;;;;4990247;28;20286;-87
2021/12/27 08:35:27;;;;;;;26.23;14.37;;;7.50;80.70;7.80;95272.00;;;;4989258;28;20854;-86
2021/12/27 08:37:54;;;;;;;22.10;13.67;;;7.50;80.50;7.80;95267.00;;;;4988982;28;20194;-87
2021/12/27 08:40:21;;;;;;;24.60;14.23;;;7.50;80.50;7.80;95268.00;;;;4997799;28;20200;-84
2021/12/27 08:42:48;;;;;;;17.70;12.77;;;8.90;81.40;7.80;95262.00;;;;4987618;28;20229;-84
2021/12/27 08:45:17;;;;;;;20.30;14.07;;;7.50;80.50;7.80;95251.00;;;;4987976;28;20202;-86
2021/12/27 08:47:44;;;;;;;18.93;13.63;;;7.50;80.40;7.80;95260.00;;;;4988312;28;20235;-85
2021/12/27 08:50:13;;;;;;;21.57;14.10;;;7.50;80.60;7.80;95271.00;;;;4991746;28;20202;-87
2021/12/27 08:52:42;;;;;;;21.90;14.73;;;7.50;80.60;7.80;95271.00;;;;4997642;28;20272;-86
2021/12/27 08:55:12;;;;;;;21.07;13.77;;;7.60;80.70;7.80;95271.00;;;;5006538;28;20667;-85
2021/12/27 08:57:43;;;;;;;19.70;13.30;;;7.60;80.80;7.90;95269.00;;;;5002160;28;20253;-87
2021/12/27 09:00:16;;;;;;;24.20;14.13;;;7.60;80.80;7.90;95276.00;;;;4996943;28;20451;-85
2021/12/27 09:02:50;;;;;;;19.03;13.80;;;7.60;80.80;7.90;95267.00;;;;5004601;28;20229;-85
2021/12/27 09:05:18;;;;;;;19.67;13.77;;;7.60;80.80;7.90;95276.00;;;;5004317;28;20688;-86
2021/12/27 09:07:45;;;;;;;19.40;13.60;;;7.70;81.10;8.00;95258.00;;;;4999228;28;20241;-86
2021/12/27 09:10:19;;;;;;;18.67;13.27;;;7.60;81.20;8.00;95268.00;;;;5001303;28;20202;-85
2021/12/27 09:12:46;;;;;;;19.20;13.50;;;7.70;81.10;8.10;95268.00;;;;4996076;28;20201;-86
2021/12/27 09:15:15;;;;;;;21.97;13.67;;;7.80;81.20;8.10;95267.00;;;;5000843;28;20198;-85
2021/12/27 09:17:44;;;;;;;17.80;12.80;;;7.90;81.30;8.10;95258.00;;;;5006029;28;20233;-85
2021/12/27 09:20:14;;;;;;;20.47;13.70;;;7.90;81.30;8.20;95271.00;;;;5005484;28;20221;-85
2021/12/27 09:22:42;;;;;;;21.67;13.70;;;7.90;81.30;8.20;95256.00;;;;5005081;28;20218;-87
2021/12/27 09:25:11;;;;;;;16.47;12.67;;;7.90;81.30;8.20;95259.00;;;;4990899;28;20200;-87
2021/12/27 09:27:38;;;;;;;20.10;14.17;;;7.90;81.10;8.30;95252.00;;;;5014161;28;20257;-84
2021/12/27 09:30:07;;;;;;;25.23;14.00;;;8.00;81.30;8.30;95252.00;;;;5017786;28;20558;-87
2021/12/27 09:32:34;;;;;;;21.90;13.30;;;8.00;81.30;8.30;95243.00;;;;5007413;28;20717;-84
2021/12/27 09:35:03;;;;;;;20.40;14.03;;;8.00;81.30;8.30;95246.00;;;;5001089;28;20201;-83
2021/12/27 09:37:30;;;;;;;24.93;12.83;;;8.10;81.20;8.40;95248.00;;;;4995200;28;20229;-84
2021/12/27 09:39:58;;;;;;;20.27;13.50;;;8.10;81.20;8.40;95246.00;;;;5014112;28;20301;-85
2021/12/27 09:42:28;;;;;;;17.80;12.87;;;8.10;81.20;8.40;95252.00;;;;5016407;28;20309;-83
2021/12/27 09:44:56;;;;;;;17.70;12.73;;;8.20;81.20;8.50;95238.00;;;;5013703;28;20297;-84
2021/12/27 09:47:24;;;;;;;18.27;13.07;;;8.20;81.50;8.50;95240.00;;;;5014792;28;20233;-85
2021/12/27 09:49:52;;;;;;;22.60;13.80;;;8.20;81.70;8.60;95234.00;;;;5007949;28;20197;-85
2021/12/27 09:52:21;;;;;;;19.80;13.83;;;8.30;82.20;8.70;95242.00;;;;5032366;28;20228;-85
2021/12/27 09:54:48;;;;;;;23.60;14.43;;;8.40;82.40;8.80;95234.00;;;;5027947;28;20190;-86
2021/12/27 09:57:16;;;;;;;22.70;13.97;;;8.50;82.50;8.80;95235.00;;;;5014980;28;20210;-85
2021/12/27 09:59:43;;;;;;;19.30;13.20;;;8.60;82.60;8.90;95222.00;;;;5015259;28;20190;-85
2021/12/27 10:02:12;;;;;;;19.40;13.97;;;8.70;82.60;9.00;95227.00;;;;4996626;28;20219;-85
2021/12/27 10:04:39;;;;;;;19.57;12.97;;;8.80;82.70;9.10;95231.00;;;;5000669;28;20202;-86
2021/12/27 10:07:06;;;;;;;19.17;14.07;;;9.00;83.20;9.30;95238.00;;;;5007563;28;20214;-86
2021/12/27 10:09:37;;;;;;;18.13;13.50;;;9.30;83.70;9.40;95238.00;;;;5015849;28;20248;-86
2021/12/27 10:12:08;;;;;;;18.70;13.03;;;9.70;84.10;9.50;95233.00;;;;5025531;28;20229;-86
2021/12/27 10:14:35;;;;;;;19.97;14.57;;;9.50;83.90;9.70;95244.00;;;;5032268;28;20232;-86
2021/12/27 10:17:10;;;;;;;19.87;13.47;;;9.70;83.70;9.80;95242.00;;;;5035198;28;20267;-88
2021/12/27 10:19:39;;;;;;;19.37;13.10;;;9.80;83.00;9.90;95235.00;;;;5050873;28;20228;-86
2021/12/27 10:22:12;;;;;;;16.17;12.67;;;9.90;82.40;10.00;95233.00;;;;5035058;28;20212;-87
2021/12/27 10:24:40;;;;;;;16.80;12.40;;;10.10;82.00;10.10;95236.00;;;;5030545;28;20707;-87
2021/12/27 10:27:07;;;;;;;17.37;13.07;;;10.10;82.00;10.20;95240.00;;;;5017302;28;20218;-86
2021/12/27 10:29:38;;;;;;;16.93;11.53;;;10.30;82.30;10.30;95228.00;;;;5013771;28;20212;-86
2021/12/27 10:32:09;;;;;;;17.07;12.23;;;10.30;81.80;10.30;95230.00;;;;5007469;28;20205;-85
2021/12/27 10:34:39;;;;;;;17.77;12.37;;;10.40;81.30;10.40;95217.00;;;;5020854;28;20232;-85
2021/12/27 10:37:22;;;;;;;15.73;11.73;;;10.40;80.70;10.40;95210.00;;;;5031649;28;20218;-85
2021/12/27 10:40:01;;;;;;;18.10;13.07;;;10.50;80.10;10.50;95205.00;;;;4991516;28;20194;-85
2021/12/27 10:42:31;;;;;;;17.33;13.40;;;10.50;80.20;10.50;95211.00;;;;5009978;28;20289;-85
2021/12/27 10:45:02;;;;;;;17.23;12.30;;;10.50;80.30;10.50;95215.00;;;;5009271;28;20621;-85
2021/12/27 10:47:41;;;;;;;18.20;13.50;;;10.50;80.20;10.50;95210.00;;;;4996104;28;20233;-85
2021/12/27 10:50:18;;;;;;;16.03;12.57;;;10.50;79.70;10.60;95210.00;;;;4995811;28;20183;-85
2021/12/27 10:52:53;;;;;;;18.07;13.20;;;10.50;79.70;10.60;95210.00;;;;4995762;28;20187;-84
2021/12/27 10:55:26;;;;;;;21.17;12.80;;;10.50;80.10;10.70;95213.00;;;;4995700;28;20194;-85
2021/12/27 10:58:09;;;;;;;19.10;13.03;;;10.50;79.90;10.70;95213.00;;;;5014026;28;20190;-85
2021/12/27 11:00:37;;;;;;;19.17;11.97;;;10.50;80.00;10.70;95218.00;;;;5015699;28;20204;-86
2021/12/27 11:03:05;;;;;;;16.57;12.10;;;10.50;80.00;10.70;95216.00;;;;5016114;28;20226;-86
2021/12/27 11:05:37;;;;;;;20.00;12.93;;;10.50;79.90;10.80;95223.00;;;;5015733;28;20209;-85